sensor_id;sensor_type;location;lat;lon;timestamp;temperature;humidity
80176;DHT22;69501;42.124;24.722;2023-07-28T00:01:33;24.00;29.80
80176;DHT22;69501;42.124;24.722;2023-07-28T00:04:01;23.90;29.00
80176;DHT22;69501;42.124;24.722;2023-07-28T00:06:32;23.80;29.50
80176;DHT22;69501;42.124;24.722;2023-07-28T00:08:58;23.80;29.60
80176;DHT22;69501;42.124;24.722;2023-07-28T00:11:24;23.80;29.40
80176;DHT22;69501;42.124;24.722;2023-07-28T00:13:50;23.90;29.30
80176;DHT22;69501;42.124;24.722;2023-07-28T00:16:15;24.00;29.70
80176;DHT22;69501;42.124;24.722;2023-07-28T00:18:41;24.00;29.20
80176;DHT22;69501;42.124;24.722;2023-07-28T00:21:07;24.10;29.20
80176;DHT22;69501;42.124;24.722;2023-07-28T00:23:32;24.10;29.10
80176;DHT22;69501;42.124;24.722;2023-07-28T00:25:58;23.70;29.60
80176;DHT22;69501;42.124;24.722;2023-07-28T00:28:24;23.80;29.80
80176;DHT22;69501;42.124;24.722;2023-07-28T00:30:50;23.80;29.30
80176;DHT22;69501;42.124;24.722;2023-07-28T00:33:16;23.60;29.60
80176;DHT22;69501;42.124;24.722;2023-07-28T00:35:41;23.70;29.90
80176;DHT22;69501;42.124;24.722;2023-07-28T00:38:08;23.80;29.20
80176;DHT22;69501;42.124;24.722;2023-07-28T00:40:35;23.80;29.20
80176;DHT22;69501;42.124;24.722;2023-07-28T00:43:03;23.70;29.50
80176;DHT22;69501;42.124;24.722;2023-07-28T00:45:29;23.80;29.30
80176;DHT22;69501;42.124;24.722;2023-07-28T00:47:56;23.60;29.30
80176;DHT22;69501;42.124;24.722;2023-07-28T00:50:25;23.70;29.70
80176;DHT22;69501;42.124;24.722;2023-07-28T00:52:51;23.70;29.60
80176;DHT22;69501;42.124;24.722;2023-07-28T00:55:17;23.70;29.60
80176;DHT22;69501;42.124;24.722;2023-07-28T00:57:43;23.70;29.70
80176;DHT22;69501;42.124;24.722;2023-07-28T01:00:09;23.80;29.90
80176;DHT22;69501;42.124;24.722;2023-07-28T01:02:36;23.90;29.30
80176;DHT22;69501;42.124;24.722;2023-07-28T01:05:03;24.00;29.20
80176;DHT22;69501;42.124;24.722;2023-07-28T01:10:13;23.80;29.30
80176;DHT22;69501;42.124;24.722;2023-07-28T01:12:40;23.80;29.50
80176;DHT22;69501;42.124;24.722;2023-07-28T01:15:06;23.70;29.70
80176;DHT22;69501;42.124;24.722;2023-07-28T01:17:32;23.50;29.80
80176;DHT22;69501;42.124;24.722;2023-07-28T01:19:58;23.40;30.60
80176;DHT22;69501;42.124;24.722;2023-07-28T01:27:58;23.30;30.70
80176;DHT22;69501;42.124;24.722;2023-07-28T01:30:26;23.30;30.80
80176;DHT22;69501;42.124;24.722;2023-07-28T01:32:56;23.20;30.90
80176;DHT22;69501;42.124;24.722;2023-07-28T01:35:23;23.30;30.70
80176;DHT22;69501;42.124;24.722;2023-07-28T01:37:48;23.40;30.60
80176;DHT22;69501;42.124;24.722;2023-07-28T01:40:19;23.40;30.60
80176;DHT22;69501;42.124;24.722;2023-07-28T01:42:45;23.40;30.80
80176;DHT22;69501;42.124;24.722;2023-07-28T01:45:11;23.40;30.30
80176;DHT22;69501;42.124;24.722;2023-07-28T01:47:37;23.50;30.70
80176;DHT22;69501;42.124;24.722;2023-07-28T01:50:03;23.60;30.10
80176;DHT22;69501;42.124;24.722;2023-07-28T01:52:29;23.70;30.10
80176;DHT22;69501;42.124;24.722;2023-07-28T01:54:54;23.80;30.00
80176;DHT22;69501;42.124;24.722;2023-07-28T01:57:20;23.60;29.60
80176;DHT22;69501;42.124;24.722;2023-07-28T01:59:46;23.50;30.20
80176;DHT22;69501;42.124;24.722;2023-07-28T02:02:11;23.50;30.20
80176;DHT22;69501;42.124;24.722;2023-07-28T02:04:37;23.50;30.20
80176;DHT22;69501;42.124;24.722;2023-07-28T02:07:03;23.40;30.10
80176;DHT22;69501;42.124;24.722;2023-07-28T02:09:28;23.40;30.50
80176;DHT22;69501;42.124;24.722;2023-07-28T02:11:54;23.40;30.70
80176;DHT22;69501;42.124;24.722;2023-07-28T02:14:20;23.40;30.70
80176;DHT22;69501;42.124;24.722;2023-07-28T02:16:45;23.30;30.60
80176;DHT22;69501;42.124;24.722;2023-07-28T02:19:11;23.20;30.50
80176;DHT22;69501;42.124;24.722;2023-07-28T02:21:37;23.20;31.10
80176;DHT22;69501;42.124;24.722;2023-07-28T02:26:38;23.20;30.90
80176;DHT22;69501;42.124;24.722;2023-07-28T02:29:03;23.20;31.10
80176;DHT22;69501;42.124;24.722;2023-07-28T02:31:29;23.10;31.00
80176;DHT22;69501;42.124;24.722;2023-07-28T02:33:55;23.10;31.10
80176;DHT22;69501;42.124;24.722;2023-07-28T02:36:20;23.00;31.00
80176;DHT22;69501;42.124;24.722;2023-07-28T02:38:46;23.00;31.60
80176;DHT22;69501;42.124;24.722;2023-07-28T02:41:12;23.10;31.20
80176;DHT22;69501;42.124;24.722;2023-07-28T02:43:37;23.00;31.40
80176;DHT22;69501;42.124;24.722;2023-07-28T02:46:03;23.00;31.50
80176;DHT22;69501;42.124;24.722;2023-07-28T02:48:29;23.20;31.50
80176;DHT22;69501;42.124;24.722;2023-07-28T02:50:54;23.20;31.10
80176;DHT22;69501;42.124;24.722;2023-07-28T02:53:20;23.20;31.20
80176;DHT22;69501;42.124;24.722;2023-07-28T02:55:47;23.20;31.30
80176;DHT22;69501;42.124;24.722;2023-07-28T02:58:13;23.20;31.00
80176;DHT22;69501;42.124;24.722;2023-07-28T03:00:40;23.30;31.20
80176;DHT22;69501;42.124;24.722;2023-07-28T03:03:10;23.30;31.40
80176;DHT22;69501;42.124;24.722;2023-07-28T03:05:40;23.20;31.10
80176;DHT22;69501;42.124;24.722;2023-07-28T03:08:06;22.90;31.60
80176;DHT22;69501;42.124;24.722;2023-07-28T03:10:32;22.80;32.00
80176;DHT22;69501;42.124;24.722;2023-07-28T03:12:58;22.90;31.90
80176;DHT22;69501;42.124;24.722;2023-07-28T03:15:23;23.00;32.00
80176;DHT22;69501;42.124;24.722;2023-07-28T03:17:52;23.00;31.80
80176;DHT22;69501;42.124;24.722;2023-07-28T03:20:20;23.10;32.40
80176;DHT22;69501;42.124;24.722;2023-07-28T03:22:46;23.20;31.40
80176;DHT22;69501;42.124;24.722;2023-07-28T03:25:12;23.20;31.20
80176;DHT22;69501;42.124;24.722;2023-07-28T03:27:38;23.30;31.40
80176;DHT22;69501;42.124;24.722;2023-07-28T03:30:04;23.30;31.30
80176;DHT22;69501;42.124;24.722;2023-07-28T03:32:32;23.30;30.90
80176;DHT22;69501;42.124;24.722;2023-07-28T03:34:58;23.40;31.00
80176;DHT22;69501;42.124;24.722;2023-07-28T03:37:23;23.40;30.70
80176;DHT22;69501;42.124;24.722;2023-07-28T03:39:49;23.40;30.80
80176;DHT22;69501;42.124;24.722;2023-07-28T03:42:15;23.40;31.10
80176;DHT22;69501;42.124;24.722;2023-07-28T03:44:41;23.40;31.00
80176;DHT22;69501;42.124;24.722;2023-07-28T03:47:07;23.50;31.00
80176;DHT22;69501;42.124;24.722;2023-07-28T03:49:33;23.60;30.70
80176;DHT22;69501;42.124;24.722;2023-07-28T03:52:00;23.70;30.30
80176;DHT22;69501;42.124;24.722;2023-07-28T03:54:25;23.70;30.50
80176;DHT22;69501;42.124;24.722;2023-07-28T03:56:51;23.70;30.50
80176;DHT22;69501;42.124;24.722;2023-07-28T03:59:17;23.70;30.30
80176;DHT22;69501;42.124;24.722;2023-07-28T04:01:42;23.80;30.40
80176;DHT22;69501;42.124;24.722;2023-07-28T04:04:08;23.80;30.20
80176;DHT22;69501;42.124;24.722;2023-07-28T04:06:45;23.90;30.10
80176;DHT22;69501;42.124;24.722;2023-07-28T04:09:14;23.90;30.00
80176;DHT22;69501;42.124;24.722;2023-07-28T04:11:40;23.90;29.90
80176;DHT22;69501;42.124;24.722;2023-07-28T04:14:06;23.90;29.70
80176;DHT22;69501;42.124;24.722;2023-07-28T04:16:32;23.80;29.90
80176;DHT22;69501;42.124;24.722;2023-07-28T04:18:58;23.70;30.00
80176;DHT22;69501;42.124;24.722;2023-07-28T04:21:24;23.80;30.20
80176;DHT22;69501;42.124;24.722;2023-07-28T04:23:50;23.70;30.00
80176;DHT22;69501;42.124;24.722;2023-07-28T04:26:17;23.70;30.10
80176;DHT22;69501;42.124;24.722;2023-07-28T04:28:43;23.70;30.10
80176;DHT22;69501;42.124;24.722;2023-07-28T04:31:08;23.70;30.30
80176;DHT22;69501;42.124;24.722;2023-07-28T04:33:34;23.80;30.00
80176;DHT22;69501;42.124;24.722;2023-07-28T04:36:02;23.70;30.10
80176;DHT22;69501;42.124;24.722;2023-07-28T04:38:28;23.70;30.20
80176;DHT22;69501;42.124;24.722;2023-07-28T04:40:54;23.80;30.60
80176;DHT22;69501;42.124;24.722;2023-07-28T04:43:19;23.90;30.20
80176;DHT22;69501;42.124;24.722;2023-07-28T04:45:45;23.80;29.80
80176;DHT22;69501;42.124;24.722;2023-07-28T04:48:11;23.80;30.00
80176;DHT22;69501;42.124;24.722;2023-07-28T04:50:37;23.90;30.20
80176;DHT22;69501;42.124;24.722;2023-07-28T04:53:03;24.00;29.90
80176;DHT22;69501;42.124;24.722;2023-07-28T04:55:28;24.10;29.60
80176;DHT22;69501;42.124;24.722;2023-07-28T04:57:56;24.00;29.60
80176;DHT22;69501;42.124;24.722;2023-07-28T05:00:22;24.10;29.60
80176;DHT22;69501;42.124;24.722;2023-07-28T05:02:48;24.20;29.50
80176;DHT22;69501;42.124;24.722;2023-07-28T05:05:15;24.10;29.60
80176;DHT22;69501;42.124;24.722;2023-07-28T05:07:41;24.20;29.60
80176;DHT22;69501;42.124;24.722;2023-07-28T05:10:08;24.20;29.40
80176;DHT22;69501;42.124;24.722;2023-07-28T05:12:34;24.20;29.30
80176;DHT22;69501;42.124;24.722;2023-07-28T05:14:59;24.20;29.10
80176;DHT22;69501;42.124;24.722;2023-07-28T05:17:25;24.20;29.30
80176;DHT22;69501;42.124;24.722;2023-07-28T05:19:51;24.30;29.50
80176;DHT22;69501;42.124;24.722;2023-07-28T05:22:17;24.20;29.00
80176;DHT22;69501;42.124;24.722;2023-07-28T05:24:43;24.20;29.10
80176;DHT22;69501;42.124;24.722;2023-07-28T05:27:10;24.40;29.30
80176;DHT22;69501;42.124;24.722;2023-07-28T05:29:36;24.40;28.80
80176;DHT22;69501;42.124;24.722;2023-07-28T05:32:01;24.20;28.90
80176;DHT22;69501;42.124;24.722;2023-07-28T05:34:27;24.10;29.10
80176;DHT22;69501;42.124;24.722;2023-07-28T05:36:53;24.20;29.30
80176;DHT22;69501;42.124;24.722;2023-07-28T05:39:19;24.40;29.20
80176;DHT22;69501;42.124;24.722;2023-07-28T05:41:45;24.50;29.10
80176;DHT22;69501;42.124;24.722;2023-07-28T05:44:11;24.60;28.90
80176;DHT22;69501;42.124;24.722;2023-07-28T05:46:36;24.50;28.70
80176;DHT22;69501;42.124;24.722;2023-07-28T05:49:02;24.50;28.90
80176;DHT22;69501;42.124;24.722;2023-07-28T05:51:28;24.50;28.60
80176;DHT22;69501;42.124;24.722;2023-07-28T05:53:54;24.60;28.50
80176;DHT22;69501;42.124;24.722;2023-07-28T05:56:20;24.70;29.70
80176;DHT22;69501;42.124;24.722;2023-07-28T05:58:49;24.80;28.60
80176;DHT22;69501;42.124;24.722;2023-07-28T06:01:15;24.90;28.10
80176;DHT22;69501;42.124;24.722;2023-07-28T06:03:41;24.90;28.10
80176;DHT22;69501;42.124;24.722;2023-07-28T06:06:07;25.00;27.70
80176;DHT22;69501;42.124;24.722;2023-07-28T06:08:33;25.10;27.80
80176;DHT22;69501;42.124;24.722;2023-07-28T06:10:59;25.10;27.80
80176;DHT22;69501;42.124;24.722;2023-07-28T06:13:25;25.10;27.90
80176;DHT22;69501;42.124;24.722;2023-07-28T06:15:53;25.00;28.10
80176;DHT22;69501;42.124;24.722;2023-07-28T06:18:19;25.00;28.40
80176;DHT22;69501;42.124;24.722;2023-07-28T06:20:47;25.10;28.50
80176;DHT22;69501;42.124;24.722;2023-07-28T06:23:13;25.10;28.20
80176;DHT22;69501;42.124;24.722;2023-07-28T06:25:39;25.20;28.30
80176;DHT22;69501;42.124;24.722;2023-07-28T06:28:12;25.20;28.10
80176;DHT22;69501;42.124;24.722;2023-07-28T06:30:38;25.20;27.80
80176;DHT22;69501;42.124;24.722;2023-07-28T06:33:08;25.30;27.80
80176;DHT22;69501;42.124;24.722;2023-07-28T06:35:34;25.30;27.50
80176;DHT22;69501;42.124;24.722;2023-07-28T06:38:01;25.40;27.60
80176;DHT22;69501;42.124;24.722;2023-07-28T06:40:27;25.40;27.50
80176;DHT22;69501;42.124;24.722;2023-07-28T06:42:53;25.50;27.70
80176;DHT22;69501;42.124;24.722;2023-07-28T06:45:20;25.60;27.30
80176;DHT22;69501;42.124;24.722;2023-07-28T06:47:45;25.60;27.30
80176;DHT22;69501;42.124;24.722;2023-07-28T06:50:11;25.70;28.30
80176;DHT22;69501;42.124;24.722;2023-07-28T06:52:37;25.80;28.20
80176;DHT22;69501;42.124;24.722;2023-07-28T06:55:03;25.80;27.90
80176;DHT22;69501;42.124;24.722;2023-07-28T06:57:29;25.90;28.20
80176;DHT22;69501;42.124;24.722;2023-07-28T06:59:56;25.90;28.20
80176;DHT22;69501;42.124;24.722;2023-07-28T07:02:22;25.90;28.30
80176;DHT22;69501;42.124;24.722;2023-07-28T07:04:48;26.00;28.40
80176;DHT22;69501;42.124;24.722;2023-07-28T07:07:14;26.00;28.30
80176;DHT22;69501;42.124;24.722;2023-07-28T07:09:40;26.10;28.00
80176;DHT22;69501;42.124;24.722;2023-07-28T07:12:08;26.20;27.80
80176;DHT22;69501;42.124;24.722;2023-07-28T07:14:33;26.20;27.10
80176;DHT22;69501;42.124;24.722;2023-07-28T07:16:59;26.20;26.60
80176;DHT22;69501;42.124;24.722;2023-07-28T07:19:25;26.30;26.80
80176;DHT22;69501;42.124;24.722;2023-07-28T07:21:51;26.30;26.40
80176;DHT22;69501;42.124;24.722;2023-07-28T07:24:17;26.30;26.10
80176;DHT22;69501;42.124;24.722;2023-07-28T07:26:45;26.30;25.90
80176;DHT22;69501;42.124;24.722;2023-07-28T07:29:11;26.40;25.60
80176;DHT22;69501;42.124;24.722;2023-07-28T07:31:36;26.50;25.60
80176;DHT22;69501;42.124;24.722;2023-07-28T07:34:02;26.60;25.70
80176;DHT22;69501;42.124;24.722;2023-07-28T07:36:30;26.70;25.90
80176;DHT22;69501;42.124;24.722;2023-07-28T07:38:55;26.70;25.40
80176;DHT22;69501;42.124;24.722;2023-07-28T07:41:22;26.80;25.50
80176;DHT22;69501;42.124;24.722;2023-07-28T07:43:49;26.80;25.00
80176;DHT22;69501;42.124;24.722;2023-07-28T07:46:15;26.90;25.10
80176;DHT22;69501;42.124;24.722;2023-07-28T07:48:41;27.00;25.00
80176;DHT22;69501;42.124;24.722;2023-07-28T07:51:08;27.10;24.80
80176;DHT22;69501;42.124;24.722;2023-07-28T07:53:34;27.10;25.30
80176;DHT22;69501;42.124;24.722;2023-07-28T07:56:02;27.20;25.70
80176;DHT22;69501;42.124;24.722;2023-07-28T07:58:28;27.30;24.70
80176;DHT22;69501;42.124;24.722;2023-07-28T08:00:55;27.30;24.10
80176;DHT22;69501;42.124;24.722;2023-07-28T08:03:20;27.30;24.60
80176;DHT22;69501;42.124;24.722;2023-07-28T08:05:46;27.40;24.70
80176;DHT22;69501;42.124;24.722;2023-07-28T08:08:13;27.40;24.50
80176;DHT22;69501;42.124;24.722;2023-07-28T08:10:46;27.40;24.10
80176;DHT22;69501;42.124;24.722;2023-07-28T08:13:12;27.40;24.30
80176;DHT22;69501;42.124;24.722;2023-07-28T08:15:38;27.40;24.00
80176;DHT22;69501;42.124;24.722;2023-07-28T08:18:04;27.50;24.00
80176;DHT22;69501;42.124;24.722;2023-07-28T08:20:29;27.50;23.80
80176;DHT22;69501;42.124;24.722;2023-07-28T08:23:36;27.60;23.70
80176;DHT22;69501;42.124;24.722;2023-07-28T08:26:02;27.70;23.90
80176;DHT22;69501;42.124;24.722;2023-07-28T08:28:29;27.70;23.30
80176;DHT22;69501;42.124;24.722;2023-07-28T08:30:57;27.70;23.00
80176;DHT22;69501;42.124;24.722;2023-07-28T08:33:24;27.80;22.90
80176;DHT22;69501;42.124;24.722;2023-07-28T08:35:50;27.80;22.40
80176;DHT22;69501;42.124;24.722;2023-07-28T08:38:16;27.80;22.00
80176;DHT22;69501;42.124;24.722;2023-07-28T08:40:43;27.90;21.90
80176;DHT22;69501;42.124;24.722;2023-07-28T08:43:09;27.90;22.10
80176;DHT22;69501;42.124;24.722;2023-07-28T08:45:36;28.00;22.10
80176;DHT22;69501;42.124;24.722;2023-07-28T08:48:01;28.10;22.70
80176;DHT22;69501;42.124;24.722;2023-07-28T08:50:27;28.20;21.60
80176;DHT22;69501;42.124;24.722;2023-07-28T08:52:53;28.20;21.30
80176;DHT22;69501;42.124;24.722;2023-07-28T08:55:38;28.30;20.80
80176;DHT22;69501;42.124;24.722;2023-07-28T08:58:17;28.30;20.90
80176;DHT22;69501;42.124;24.722;2023-07-28T09:00:45;28.30;20.70
80176;DHT22;69501;42.124;24.722;2023-07-28T09:03:15;28.40;20.30
80176;DHT22;69501;42.124;24.722;2023-07-28T09:05:45;28.40;20.30
80176;DHT22;69501;42.124;24.722;2023-07-28T09:08:16;28.50;20.30
80176;DHT22;69501;42.124;24.722;2023-07-28T09:10:46;28.50;20.10
80176;DHT22;69501;42.124;24.722;2023-07-28T09:13:16;28.60;20.80
80176;DHT22;69501;42.124;24.722;2023-07-28T09:15:42;28.60;20.60
80176;DHT22;69501;42.124;24.722;2023-07-28T09:18:09;28.60;19.80
80176;DHT22;69501;42.124;24.722;2023-07-28T09:20:37;28.70;18.90
80176;DHT22;69501;42.124;24.722;2023-07-28T09:23:04;28.70;19.00
80176;DHT22;69501;42.124;24.722;2023-07-28T09:25:31;28.70;18.80
80176;DHT22;69501;42.124;24.722;2023-07-28T09:27:58;28.80;19.60
80176;DHT22;69501;42.124;24.722;2023-07-28T09:30:24;28.90;19.90
80176;DHT22;69501;42.124;24.722;2023-07-28T09:32:53;29.00;18.80
80176;DHT22;69501;42.124;24.722;2023-07-28T09:35:19;29.00;18.80
80176;DHT22;69501;42.124;24.722;2023-07-28T09:37:49;29.00;18.70
80176;DHT22;69501;42.124;24.722;2023-07-28T09:40:21;29.10;18.60
80176;DHT22;69501;42.124;24.722;2023-07-28T09:42:48;29.10;19.00
80176;DHT22;69501;42.124;24.722;2023-07-28T09:45:20;29.20;18.80
80176;DHT22;69501;42.124;24.722;2023-07-28T09:47:48;29.30;18.00
80176;DHT22;69501;42.124;24.722;2023-07-28T09:50:17;29.40;18.10
80176;DHT22;69501;42.124;24.722;2023-07-28T09:52:46;29.40;17.60
80176;DHT22;69501;42.124;24.722;2023-07-28T09:55:12;29.50;17.50
80176;DHT22;69501;42.124;24.722;2023-07-28T09:57:58;29.60;17.60
80176;DHT22;69501;42.124;24.722;2023-07-28T10:00:27;29.60;17.30
80176;DHT22;69501;42.124;24.722;2023-07-28T10:02:53;29.70;17.10
80176;DHT22;69501;42.124;24.722;2023-07-28T10:05:19;29.80;18.10
80176;DHT22;69501;42.124;24.722;2023-07-28T10:07:48;29.90;17.30
80176;DHT22;69501;42.124;24.722;2023-07-28T10:10:14;29.90;17.40
80176;DHT22;69501;42.124;24.722;2023-07-28T10:15:09;30.00;17.20
80176;DHT22;69501;42.124;24.722;2023-07-28T10:17:37;30.10;17.30
80176;DHT22;69501;42.124;24.722;2023-07-28T10:20:06;30.20;17.50
80176;DHT22;69501;42.124;24.722;2023-07-28T10:22:44;30.30;17.60
80176;DHT22;69501;42.124;24.722;2023-07-28T10:25:22;30.30;16.90
80176;DHT22;69501;42.124;24.722;2023-07-28T10:27:50;30.40;17.10
80176;DHT22;69501;42.124;24.722;2023-07-28T10:30:16;30.40;17.30
80176;DHT22;69501;42.124;24.722;2023-07-28T10:32:48;30.40;16.50
80176;DHT22;69501;42.124;24.722;2023-07-28T10:37:47;31.00;16.10
80176;DHT22;69501;42.124;24.722;2023-07-28T10:40:28;31.30;15.90
80176;DHT22;69501;42.124;24.722;2023-07-28T10:43:00;31.40;16.40
80176;DHT22;69501;42.124;24.722;2023-07-28T10:45:28;31.60;15.50
80176;DHT22;69501;42.124;24.722;2023-07-28T10:47:55;31.90;15.10
80176;DHT22;69501;42.124;24.722;2023-07-28T10:50:24;32.20;14.70
80176;DHT22;69501;42.124;24.722;2023-07-28T10:52:50;32.50;14.40
80176;DHT22;69501;42.124;24.722;2023-07-28T10:55:21;32.60;14.40
80176;DHT22;69501;42.124;24.722;2023-07-28T10:57:49;32.80;14.00
80176;DHT22;69501;42.124;24.722;2023-07-28T11:00:16;33.10;13.60
80176;DHT22;69501;42.124;24.722;2023-07-28T11:02:50;33.20;13.60
80176;DHT22;69501;42.124;24.722;2023-07-28T11:07:45;33.50;13.30
80176;DHT22;69501;42.124;24.722;2023-07-28T11:10:12;33.60;12.80
80176;DHT22;69501;42.124;24.722;2023-07-28T11:12:46;33.60;12.80
80176;DHT22;69501;42.124;24.722;2023-07-28T11:15:13;33.60;13.50
80176;DHT22;69501;42.124;24.722;2023-07-28T11:17:49;33.50;14.50
80176;DHT22;69501;42.124;24.722;2023-07-28T11:20:24;33.40;15.50
80176;DHT22;69501;42.124;24.722;2023-07-28T11:22:55;33.20;16.20
80176;DHT22;69501;42.124;24.722;2023-07-28T11:25:22;33.10;16.90
80176;DHT22;69501;42.124;24.722;2023-07-28T11:27:49;32.80;16.90
80176;DHT22;69501;42.124;24.722;2023-07-28T11:30:16;32.80;17.10
80176;DHT22;69501;42.124;24.722;2023-07-28T11:32:44;32.70;16.60
80176;DHT22;69501;42.124;24.722;2023-07-28T11:35:11;32.70;17.90
80176;DHT22;69501;42.124;24.722;2023-07-28T11:37:42;32.80;16.30
80176;DHT22;69501;42.124;24.722;2023-07-28T11:40:09;32.80;15.90
80176;DHT22;69501;42.124;24.722;2023-07-28T11:42:46;32.90;16.10
80176;DHT22;69501;42.124;24.722;2023-07-28T11:45:13;33.00;15.70
80176;DHT22;69501;42.124;24.722;2023-07-28T11:48:01;33.00;15.90
80176;DHT22;69501;42.124;24.722;2023-07-28T11:50:29;33.10;15.20
80176;DHT22;69501;42.124;24.722;2023-07-28T11:52:57;33.40;15.40
80176;DHT22;69501;42.124;24.722;2023-07-28T11:55:23;33.50;14.80
80176;DHT22;69501;42.124;24.722;2023-07-28T11:57:50;33.70;14.40
80176;DHT22;69501;42.124;24.722;2023-07-28T12:00:16;34.00;14.50
80176;DHT22;69501;42.124;24.722;2023-07-28T12:02:43;34.20;13.90
80176;DHT22;69501;42.124;24.722;2023-07-28T12:05:15;34.40;13.60
80176;DHT22;69501;42.124;24.722;2023-07-28T12:07:47;34.40;13.50
80176;DHT22;69501;42.124;24.722;2023-07-28T12:10:13;34.50;13.50
80176;DHT22;69501;42.124;24.722;2023-07-28T12:12:44;34.70;13.40
80176;DHT22;69501;42.124;24.722;2023-07-28T12:15:30;35.00;13.20
80176;DHT22;69501;42.124;24.722;2023-07-28T12:18:16;35.30;12.70
80176;DHT22;69501;42.124;24.722;2023-07-28T12:20:42;35.60;12.40
80176;DHT22;69501;42.124;24.722;2023-07-28T12:23:13;35.70;12.40
80176;DHT22;69501;42.124;24.722;2023-07-28T12:25:38;35.70;12.00
80176;DHT22;69501;42.124;24.722;2023-07-28T12:28:05;35.60;11.60
80176;DHT22;69501;42.124;24.722;2023-07-28T12:30:32;35.50;11.80
80176;DHT22;69501;42.124;24.722;2023-07-28T12:32:58;35.40;11.70
80176;DHT22;69501;42.124;24.722;2023-07-28T12:35:24;35.20;11.90
80176;DHT22;69501;42.124;24.722;2023-07-28T12:37:52;35.30;11.60
80176;DHT22;69501;42.124;24.722;2023-07-28T12:40:18;35.40;11.70
80176;DHT22;69501;42.124;24.722;2023-07-28T12:42:47;35.60;11.80
80176;DHT22;69501;42.124;24.722;2023-07-28T12:45:14;35.60;11.60
80176;DHT22;69501;42.124;24.722;2023-07-28T12:47:41;35.80;11.50
80176;DHT22;69501;42.124;24.722;2023-07-28T12:50:07;35.90;11.20
80176;DHT22;69501;42.124;24.722;2023-07-28T12:53:17;36.00;11.20
80176;DHT22;69501;42.124;24.722;2023-07-28T12:55:51;36.00;11.10
80176;DHT22;69501;42.124;24.722;2023-07-28T12:58:16;36.20;11.70
80176;DHT22;69501;42.124;24.722;2023-07-28T13:00:43;36.30;11.90
80176;DHT22;69501;42.124;24.722;2023-07-28T13:03:08;36.30;12.10
80176;DHT22;69501;42.124;24.722;2023-07-28T13:05:35;36.30;12.80
80176;DHT22;69501;42.124;24.722;2023-07-28T13:08:00;35.90;13.20
80176;DHT22;69501;42.124;24.722;2023-07-28T13:10:26;35.70;13.40
80176;DHT22;69501;42.124;24.722;2023-07-28T13:12:52;35.70;13.80
80176;DHT22;69501;42.124;24.722;2023-07-28T13:15:17;35.80;13.20
80176;DHT22;69501;42.124;24.722;2023-07-28T13:17:43;35.80;13.10
80176;DHT22;69501;42.124;24.722;2023-07-28T13:20:09;35.90;13.10
80176;DHT22;69501;42.124;24.722;2023-07-28T13:22:36;35.90;12.80
80176;DHT22;69501;42.124;24.722;2023-07-28T13:25:05;35.90;12.70
80176;DHT22;69501;42.124;24.722;2023-07-28T13:27:37;36.10;12.50
80176;DHT22;69501;42.124;24.722;2023-07-28T13:30:02;36.10;12.40
80176;DHT22;69501;42.124;24.722;2023-07-28T13:32:30;36.30;12.20
80176;DHT22;69501;42.124;24.722;2023-07-28T13:34:56;36.40;11.80
80176;DHT22;69501;42.124;24.722;2023-07-28T13:37:21;36.50;12.00
80176;DHT22;69501;42.124;24.722;2023-07-28T13:39:47;36.60;11.80
80176;DHT22;69501;42.124;24.722;2023-07-28T13:42:13;36.70;11.70
80176;DHT22;69501;42.124;24.722;2023-07-28T13:44:41;36.80;11.50
80176;DHT22;69501;42.124;24.722;2023-07-28T13:47:07;36.90;10.90
80176;DHT22;69501;42.124;24.722;2023-07-28T13:49:32;36.90;11.00
80176;DHT22;69501;42.124;24.722;2023-07-28T13:52:01;36.90;10.90
80176;DHT22;69501;42.124;24.722;2023-07-28T13:54:27;36.90;10.90
80176;DHT22;69501;42.124;24.722;2023-07-28T13:56:53;37.00;10.70
80176;DHT22;69501;42.124;24.722;2023-07-28T13:59:18;37.00;10.60
80176;DHT22;69501;42.124;24.722;2023-07-28T14:01:44;36.90;10.90
80176;DHT22;69501;42.124;24.722;2023-07-28T14:04:10;36.90;10.70
80176;DHT22;69501;42.124;24.722;2023-07-28T14:06:38;36.90;10.50
80176;DHT22;69501;42.124;24.722;2023-07-28T14:09:04;36.80;10.50
80176;DHT22;69501;42.124;24.722;2023-07-28T14:11:29;36.80;10.60
80176;DHT22;69501;42.124;24.722;2023-07-28T14:13:55;36.80;10.60
80176;DHT22;69501;42.124;24.722;2023-07-28T14:16:21;36.80;10.50
80176;DHT22;69501;42.124;24.722;2023-07-28T14:18:49;36.90;10.40
80176;DHT22;69501;42.124;24.722;2023-07-28T14:21:16;37.00;11.30
80176;DHT22;69501;42.124;24.722;2023-07-28T14:23:41;36.90;10.30
80176;DHT22;69501;42.124;24.722;2023-07-28T14:26:07;36.80;10.30
80176;DHT22;69501;42.124;24.722;2023-07-28T14:28:32;36.70;10.40
80176;DHT22;69501;42.124;24.722;2023-07-28T14:30:58;36.60;10.60
80176;DHT22;69501;42.124;24.722;2023-07-28T14:33:24;36.70;10.40
80176;DHT22;69501;42.124;24.722;2023-07-28T14:35:49;36.70;10.60
80176;DHT22;69501;42.124;24.722;2023-07-28T14:38:15;36.70;10.50
80176;DHT22;69501;42.124;24.722;2023-07-28T14:40:42;36.70;10.60
80176;DHT22;69501;42.124;24.722;2023-07-28T14:43:09;36.80;10.50
80176;DHT22;69501;42.124;24.722;2023-07-28T14:45:35;36.80;10.50
80176;DHT22;69501;42.124;24.722;2023-07-28T14:48:02;36.90;10.30
80176;DHT22;69501;42.124;24.722;2023-07-28T14:50:28;36.80;10.30
80176;DHT22;69501;42.124;24.722;2023-07-28T14:52:58;36.90;10.30
80176;DHT22;69501;42.124;24.722;2023-07-28T14:55:24;36.90;10.30
80176;DHT22;69501;42.124;24.722;2023-07-28T14:57:50;36.90;10.20
80176;DHT22;69501;42.124;24.722;2023-07-28T15:00:17;37.00;10.10
80176;DHT22;69501;42.124;24.722;2023-07-28T15:02:42;36.90;10.20
80176;DHT22;69501;42.124;24.722;2023-07-28T15:05:08;37.00;10.20
80176;DHT22;69501;42.124;24.722;2023-07-28T15:07:34;37.10;10.20
80176;DHT22;69501;42.124;24.722;2023-07-28T15:10:06;37.10;10.20
80176;DHT22;69501;42.124;24.722;2023-07-28T15:12:32;37.20;10.20
80176;DHT22;69501;42.124;24.722;2023-07-28T15:14:57;37.10;10.10
80176;DHT22;69501;42.124;24.722;2023-07-28T15:17:23;37.10;11.00
80176;DHT22;69501;42.124;24.722;2023-07-28T15:19:49;37.10;10.00
80176;DHT22;69501;42.124;24.722;2023-07-28T15:22:17;37.10;10.00
80176;DHT22;69501;42.124;24.722;2023-07-28T15:24:42;37.20;10.00
80176;DHT22;69501;42.124;24.722;2023-07-28T15:27:08;37.20;10.10
80176;DHT22;69501;42.124;24.722;2023-07-28T15:29:34;37.20;10.10
80176;DHT22;69501;42.124;24.722;2023-07-28T15:32:00;37.20;10.10
80176;DHT22;69501;42.124;24.722;2023-07-28T15:34:25;37.20;10.20